Terminal Aerodrome Forecast
Issued by NWS Shreveport, LA

Home | Current Version | Previous Version | Text Only | Print | Product List | Glossary On
Versions: 1 2 3 4 5 6 7 8 9 10 11 12 13 14 15 16 17 18 19 20
658
FTUS44 KSHV 281740
TAFTXK
TAF
KTXK 281740Z 2818/2918 08006KT P6SM SKC
     FM290300 12005KT P6SM SCT250
     FM290500 13006KT P6SM VCTS OVC050CB
     FM290800 14005KT 5SM -TSRA OVC050CB
     FM291300 12007KT 3SM BR OVC007
     FM291500 12006KT 1 1/2SM BR OVC004=

USA.gov is the U.S. government's official web portal to all federal, state and local government web resources and services.